createdAt,value
2022-10-10T00:01:55.151Z,49.93
2022-10-10T00:04:29.568Z,38.93
2022-10-10T00:07:03.762Z,50.00
2022-10-10T00:09:37.778Z,48.23
2022-10-10T00:12:12.029Z,48.03
2022-10-10T00:14:46.468Z,48.60
2022-10-10T00:17:22.679Z,51.10
2022-10-10T00:19:57.119Z,50.73
2022-10-10T00:22:31.130Z,58.03
2022-10-10T00:25:04.980Z,58.07
2022-10-10T00:27:39.354Z,64.43
2022-10-10T00:30:15.421Z,55.17
2022-10-10T00:32:51.961Z,50.03
2022-10-10T00:35:26.039Z,47.87
2022-10-10T00:38:01.028Z,52.43
2022-10-10T00:40:35.310Z,50.17
2022-10-10T00:43:09.504Z,52.87
2022-10-10T00:45:47.875Z,52.07
2022-10-10T00:48:24.971Z,54.87
2022-10-10T00:51:08.712Z,54.20
2022-10-10T00:53:45.757Z,59.53
2022-10-10T00:56:22.497Z,65.03
2022-10-10T00:59:00.105Z,54.07
2022-10-10T01:01:34.730Z,61.77
2022-10-10T01:04:10.960Z,65.57
2022-10-10T01:06:45.541Z,58.77
2022-10-10T01:09:19.898Z,48.37
2022-10-10T01:12:00.750Z,51.47
2022-10-10T01:14:42.334Z,47.30
2022-10-10T01:17:22.569Z,54.70
2022-10-10T01:20:31.142Z,57.23
2022-10-10T01:23:25.899Z,65.70
2022-10-10T01:26:14.876Z,55.03
2022-10-10T01:28:55.087Z,57.83
2022-10-10T01:31:31.027Z,73.27
2022-10-10T01:34:21.705Z,56.70
2022-10-10T01:37:03.451Z,71.00
2022-10-10T01:39:44.380Z,62.87
2022-10-10T01:42:23.862Z,58.30
2022-10-10T01:44:59.596Z,56.27
2022-10-10T01:47:33.769Z,56.37
2022-10-10T01:50:12.144Z,51.80
2022-10-10T01:52:53.462Z,58.70
2022-10-10T01:55:45.370Z,58.10
2022-10-10T01:58:39.152Z,55.73
2022-10-10T02:01:22.027Z,57.67
2022-10-10T02:04:05.623Z,49.07
2022-10-10T02:06:46.826Z,60.77
2022-10-10T02:09:26.426Z,54.20
2022-10-10T02:12:02.622Z,54.03
2022-10-10T02:14:42.004Z,57.67
2022-10-10T02:17:20.227Z,51.93
2022-10-10T02:19:58.059Z,52.20
2022-10-10T02:22:34.086Z,55.60
2022-10-10T02:25:10.052Z,48.13
2022-10-10T02:27:51.006Z,54.03
2022-10-10T02:30:26.158Z,52.20
2022-10-10T02:33:07.905Z,50.63
2022-10-10T02:35:46.142Z,58.53
2022-10-10T02:38:22.266Z,55.13
2022-10-10T02:40:57.768Z,50.33
2022-10-10T02:43:32.780Z,49.63
2022-10-10T02:46:11.007Z,49.70
2022-10-10T02:48:47.853Z,60.70
2022-10-10T02:51:22.529Z,59.10
2022-10-10T02:53:56.305Z,52.03
2022-10-10T02:56:30.758Z,55.03
2022-10-10T02:59:04.966Z,54.83
2022-10-10T03:01:40.157Z,53.17
2022-10-10T03:04:17.308Z,53.67
2022-10-10T03:06:52.149Z,63.83
2022-10-10T03:09:27.006Z,54.03
2022-10-10T03:12:01.929Z,57.80
2022-10-10T03:14:36.283Z,54.43
2022-10-10T03:17:11.519Z,57.67
2022-10-10T03:19:48.821Z,52.40
2022-10-10T03:22:23.819Z,43.57
2022-10-10T03:24:58.102Z,53.90
2022-10-10T03:27:33.717Z,53.50
2022-10-10T03:30:08.551Z,54.13
2022-10-10T03:32:43.768Z,62.13
2022-10-10T03:35:20.957Z,48.20
2022-10-10T03:37:55.670Z,54.27
2022-10-10T03:40:31.134Z,58.63
2022-10-10T03:43:05.564Z,58.60
2022-10-10T03:45:40.946Z,51.00
2022-10-10T03:48:16.592Z,46.00
2022-10-10T03:50:54.910Z,63.43
2022-10-10T03:53:31.891Z,43.33
2022-10-10T03:56:06.943Z,58.17
2022-10-10T03:58:42.074Z,55.87
2022-10-10T04:01:17.483Z,56.53
2022-10-10T04:03:52.569Z,53.27
2022-10-10T04:06:29.796Z,55.87
2022-10-10T04:09:04.760Z,51.17
2022-10-10T04:11:40.185Z,54.50
2022-10-10T04:14:15.747Z,59.60
2022-10-10T04:16:50.538Z,53.83
2022-10-10T04:19:26.357Z,50.33
2022-10-10T04:22:06.799Z,48.13
2022-10-10T04:24:44.233Z,50.70
2022-10-10T04:27:19.361Z,48.70
2022-10-10T04:29:54.349Z,47.97
2022-10-10T04:32:29.866Z,49.90
2022-10-10T04:35:04.472Z,49.20
2022-10-10T04:37:42.888Z,56.00
2022-10-10T04:40:22.668Z,50.93
2022-10-10T04:43:00.878Z,49.23
2022-10-10T04:45:37.726Z,55.73
2022-10-10T04:48:13.143Z,50.60
2022-10-10T04:50:48.754Z,51.90
2022-10-10T04:53:35.366Z,49.67
2022-10-10T04:56:11.848Z,60.43
2022-10-10T04:58:46.781Z,60.40
2022-10-10T05:01:21.567Z,50.83
2022-10-10T05:03:59.352Z,54.37
2022-10-10T05:06:34.448Z,51.33
2022-10-10T05:09:13.905Z,44.10
2022-10-10T05:11:52.607Z,51.40
2022-10-10T05:14:29.055Z,48.93
2022-10-10T05:17:04.529Z,54.60
2022-10-10T05:19:40.017Z,62.07
2022-10-10T05:22:16.857Z,59.73
2022-10-10T05:24:53.202Z,49.93
2022-10-10T05:27:31.381Z,54.30
2022-10-10T05:30:07.057Z,46.50
2022-10-10T05:32:42.566Z,54.53
2022-10-10T05:35:18.298Z,42.27
2022-10-10T05:37:54.254Z,50.20
2022-10-10T05:40:46.181Z,54.43
2022-10-10T05:43:21.772Z,66.20
2022-10-10T05:45:57.141Z,47.53
2022-10-10T05:48:36.072Z,49.63
2022-10-10T05:51:11.291Z,53.60
2022-10-10T05:53:46.489Z,48.50
2022-10-10T05:56:26.342Z,41.87
2022-10-10T05:59:01.554Z,49.50
2022-10-10T06:01:36.303Z,51.37
2022-10-10T06:04:11.762Z,49.33
2022-10-10T06:06:47.493Z,54.30
2022-10-10T06:09:25.922Z,47.27
2022-10-10T06:12:04.160Z,54.97
2022-10-10T06:14:40.314Z,52.17
2022-10-10T06:17:15.121Z,46.07
2022-10-10T06:19:50.781Z,53.40
2022-10-10T06:22:26.823Z,48.33
2022-10-10T06:25:03.593Z,55.73
2022-10-10T06:27:46.183Z,40.43
2022-10-10T06:30:21.500Z,44.87
2022-10-10T06:32:57.271Z,51.77
2022-10-10T06:35:33.095Z,41.47
2022-10-10T06:38:08.699Z,51.57
2022-10-10T06:40:44.347Z,48.60
2022-10-10T06:43:26.773Z,50.07
2022-10-10T06:46:02.009Z,46.80
2022-10-10T06:48:41.340Z,40.73
2022-10-10T06:51:20.616Z,46.10
2022-10-10T06:53:58.712Z,50.10
2022-10-10T06:56:33.556Z,50.63
2022-10-10T06:59:11.464Z,55.77
2022-10-10T07:01:48.349Z,45.00
2022-10-10T07:04:23.776Z,44.47
2022-10-10T07:06:59.344Z,49.67
2022-10-10T07:09:35.774Z,46.70
2022-10-10T07:12:14.322Z,38.00
2022-10-10T07:14:51.831Z,54.73
2022-10-10T07:17:26.968Z,49.57
2022-10-10T07:20:02.408Z,38.10
2022-10-10T07:22:37.590Z,46.80
2022-10-10T07:25:14.135Z,49.50
2022-10-10T07:27:49.391Z,46.50
2022-10-10T07:30:26.850Z,43.13
2022-10-10T07:33:05.950Z,51.17
2022-10-10T07:35:41.021Z,52.07
2022-10-10T07:38:17.459Z,44.40
2022-10-10T07:40:52.668Z,50.47
2022-10-10T07:43:29.859Z,47.50
2022-10-10T07:46:09.627Z,47.33
2022-10-10T07:48:46.984Z,38.37
2022-10-10T07:51:23.172Z,42.83
2022-10-10T07:53:58.989Z,40.70
2022-10-10T07:56:34.401Z,42.83
2022-10-10T07:59:09.669Z,45.33
2022-10-10T08:01:47.446Z,42.20
2022-10-10T08:04:23.991Z,41.80
2022-10-10T08:06:59.421Z,57.40
2022-10-10T08:09:35.865Z,44.17
2022-10-10T08:12:11.110Z,40.73
2022-10-10T08:14:46.090Z,44.80
2022-10-10T08:17:23.422Z,49.07
2022-10-10T08:19:58.462Z,48.60
2022-10-10T08:22:33.582Z,45.10
2022-10-10T08:25:09.600Z,55.30
2022-10-10T08:27:45.773Z,45.60
2022-10-10T08:30:21.369Z,42.60
2022-10-10T08:32:58.293Z,42.23
2022-10-10T08:35:33.781Z,45.57
2022-10-10T08:38:08.858Z,37.27
2022-10-10T08:40:49.960Z,49.40
2022-10-10T08:43:31.284Z,51.77
2022-10-10T08:46:14.524Z,39.80
2022-10-10T08:48:53.591Z,46.67
2022-10-10T08:51:35.744Z,44.30
2022-10-10T08:54:15.609Z,37.73
2022-10-10T08:56:51.255Z,46.77
2022-10-10T09:02:54.776Z,43.50
2022-10-10T09:05:52.373Z,39.67
2022-10-10T09:08:43.027Z,43.47
2022-10-10T09:15:05.366Z,43.07
2022-10-10T09:18:11.350Z,42.37
2022-10-10T09:21:18.661Z,35.63
2022-10-10T09:24:00.890Z,42.97
2022-10-10T09:26:40.051Z,45.20
2022-10-10T09:29:30.112Z,38.77
2022-10-10T09:32:13.470Z,44.80
2022-10-10T09:34:52.614Z,50.97
2022-10-10T09:37:46.950Z,42.97
2022-10-10T09:40:28.645Z,52.07
2022-10-10T09:43:08.136Z,56.57
2022-10-10T09:45:53.709Z,53.53
2022-10-10T09:48:36.030Z,49.17
2022-10-10T09:51:13.922Z,66.97
2022-10-10T09:53:56.287Z,49.30
2022-10-10T09:56:33.692Z,57.83
2022-10-10T09:59:08.380Z,60.97
2022-10-10T10:01:42.883Z,63.30
2022-10-10T10:04:28.364Z,65.07
2022-10-10T10:07:12.004Z,65.40
2022-10-10T10:09:57.532Z,61.33
2022-10-10T10:12:43.430Z,68.77
2022-10-10T10:15:25.044Z,67.57
2022-10-10T10:18:18.298Z,54.50
2022-10-10T10:20:54.778Z,55.90
2022-10-10T10:23:36.086Z,60.50
2022-10-10T10:26:23.037Z,66.77
2022-10-10T10:29:00.342Z,65.30
2022-10-10T10:31:56.488Z,64.37
2022-10-10T10:35:05.027Z,65.07
2022-10-10T10:37:52.896Z,66.80
2022-10-10T10:40:36.123Z,66.60
2022-10-10T10:43:39.525Z,68.37
2022-10-10T10:46:40.079Z,66.47
2022-10-10T10:49:21.805Z,72.57
2022-10-10T10:52:15.043Z,70.63
2022-10-10T10:55:13.969Z,77.67
2022-10-10T10:58:37.603Z,69.80
2022-10-10T11:01:24.296Z,72.43
2022-10-10T11:05:16.695Z,70.57
2022-10-10T11:07:19.956Z,59.27
2022-10-10T11:10:00.930Z,61.43
2022-10-10T11:12:56.781Z,69.93
2022-10-10T11:16:04.891Z,78.27
2022-10-10T11:18:37.483Z,72.13
2022-10-10T11:21:17.373Z,64.60
2022-10-10T11:23:58.372Z,66.00
2022-10-10T11:26:38.050Z,62.17
2022-10-10T11:29:19.179Z,73.90
2022-10-10T11:32:00.391Z,62.03
2022-10-10T11:34:39.893Z,64.77
2022-10-10T11:37:21.678Z,73.77
2022-10-10T11:40:01.417Z,58.40
2022-10-10T11:42:41.786Z,64.43
2022-10-10T11:45:21.994Z,66.87
2022-10-10T11:48:05.749Z,68.17
2022-10-10T11:50:49.137Z,68.40
2022-10-10T11:53:33.328Z,62.33
2022-10-10T11:56:17.127Z,65.67
2022-10-10T11:58:59.949Z,64.77
2022-10-10T12:01:39.485Z,53.07
2022-10-10T12:04:17.046Z,61.50
2022-10-10T12:06:57.576Z,70.87
2022-10-10T12:09:39.258Z,65.93
2022-10-10T12:12:18.307Z,61.07
2022-10-10T12:14:58.728Z,72.90
2022-10-10T12:17:54.932Z,74.77
2022-10-10T12:20:40.393Z,71.03
2022-10-10T12:23:39.657Z,56.30
2022-10-10T12:26:33.749Z,66.40
2022-10-10T12:29:14.418Z,64.90
2022-10-10T12:31:50.062Z,69.43
2022-10-10T12:34:49.599Z,67.13
2022-10-10T12:37:30.823Z,67.93
2022-10-10T12:40:29.860Z,54.80
2022-10-10T12:43:41.263Z,61.07
2022-10-10T12:46:27.832Z,64.83
2022-10-10T12:49:21.666Z,70.13
2022-10-10T12:52:10.156Z,62.00
2022-10-10T12:54:51.869Z,64.43
2022-10-10T12:57:45.129Z,76.53
2022-10-10T13:00:33.684Z,73.77
2022-10-10T13:03:23.363Z,71.83
2022-10-10T13:06:04.919Z,81.10
2022-10-10T13:08:51.905Z,79.00
2022-10-10T13:11:33.012Z,85.10
2022-10-10T13:14:16.306Z,80.20
2022-10-10T13:16:57.701Z,78.33
2022-10-10T13:19:39.076Z,81.27
2022-10-10T13:22:16.801Z,75.70
2022-10-10T13:24:56.756Z,73.40
2022-10-10T13:27:42.909Z,67.80
2022-10-10T13:30:31.721Z,75.33
2022-10-10T13:33:22.862Z,72.97
2022-10-10T13:36:13.476Z,71.33
2022-10-10T13:38:55.925Z,68.57
2022-10-10T13:41:33.589Z,81.23
2022-10-10T13:44:26.288Z,79.03
2022-10-10T13:47:25.675Z,76.43
2022-10-10T13:50:05.881Z,74.23
2022-10-10T13:52:46.033Z,77.60
2022-10-10T13:55:30.431Z,86.57
2022-10-10T13:58:11.379Z,70.60
2022-10-10T14:00:48.937Z,67.97
2022-10-10T14:03:31.132Z,77.93
2022-10-10T14:06:12.657Z,81.10
2022-10-10T14:09:02.590Z,74.03
2022-10-10T14:11:48.924Z,64.60
2022-10-10T14:14:30.407Z,65.90
2022-10-10T14:17:11.258Z,73.07
2022-10-10T14:20:13.292Z,82.70
2022-10-10T14:22:54.115Z,74.60
2022-10-10T14:25:31.374Z,78.17
2022-10-10T14:28:12.452Z,81.83
2022-10-10T14:30:51.970Z,72.70
2022-10-10T14:33:37.357Z,79.77
2022-10-10T14:36:22.011Z,70.93
2022-10-10T14:39:06.776Z,69.97
2022-10-10T14:41:47.793Z,66.20
2022-10-10T14:44:23.226Z,60.53
2022-10-10T14:47:08.887Z,64.10
2022-10-10T14:49:45.509Z,62.93
2022-10-10T14:52:23.059Z,68.37
2022-10-10T14:58:26.380Z,64.93
2022-10-10T15:01:06.385Z,64.93
2022-10-10T15:03:42.881Z,66.93
2022-10-10T15:06:21.874Z,60.33
2022-10-10T15:09:02.105Z,64.83
2022-10-10T15:11:45.303Z,63.27
2022-10-10T15:14:32.389Z,60.83
2022-10-10T15:17:14.567Z,52.07
2022-10-10T15:19:55.584Z,63.13
2022-10-10T15:22:33.352Z,66.60
2022-10-10T15:25:14.254Z,58.20
2022-10-10T15:27:53.389Z,63.10
2022-10-10T15:30:32.075Z,63.53
2022-10-10T15:33:18.921Z,74.40
2022-10-10T15:36:12.947Z,61.50
2022-10-10T15:38:53.652Z,52.20
2022-10-10T15:41:29.287Z,56.30
2022-10-10T15:44:21.614Z,57.23
2022-10-10T15:47:04.789Z,45.90
2022-10-10T15:49:43.287Z,59.80
2022-10-10T15:52:24.657Z,56.80
2022-10-10T15:55:08.754Z,62.40
2022-10-10T15:57:50.265Z,48.80
2022-10-10T16:00:27.700Z,50.97
2022-10-10T16:03:04.894Z,49.20
2022-10-10T16:05:49.258Z,52.27
2022-10-10T16:08:26.890Z,58.10
2022-10-10T16:11:03.502Z,57.97
2022-10-10T16:13:45.402Z,49.77
2022-10-10T16:16:21.371Z,56.90
2022-10-10T16:19:03.279Z,49.47
2022-10-10T16:21:39.096Z,54.40
2022-10-10T16:24:17.002Z,51.87
2022-10-10T16:27:01.083Z,55.20
2022-10-10T16:29:45.510Z,44.90
2022-10-10T16:32:21.422Z,62.17
2022-10-10T16:34:58.597Z,50.23
2022-10-10T16:37:33.642Z,51.40
2022-10-10T16:40:08.985Z,57.37
2022-10-10T16:42:50.114Z,44.20
2022-10-10T16:45:25.229Z,57.23
2022-10-10T16:48:02.751Z,43.40
2022-10-10T16:50:44.396Z,58.77
2022-10-10T16:53:19.552Z,53.10
2022-10-10T16:55:54.737Z,56.33
2022-10-10T16:58:30.407Z,53.53
2022-10-10T17:01:07.787Z,53.47
2022-10-10T17:03:44.502Z,59.50
2022-10-10T17:06:23.352Z,49.10
2022-10-10T17:09:03.745Z,45.53
2022-10-10T17:11:42.671Z,63.83
2022-10-10T17:14:17.873Z,58.97
2022-10-10T17:17:11.753Z,48.27
2022-10-10T17:19:47.363Z,52.30
2022-10-10T17:22:25.029Z,63.27
2022-10-10T17:25:00.257Z,62.77
2022-10-10T17:27:36.515Z,55.27
2022-10-10T17:30:13.988Z,52.30
2022-10-10T17:32:49.104Z,47.07
2022-10-10T17:35:24.086Z,57.50
2022-10-10T17:38:21.345Z,54.37
2022-10-10T17:41:03.137Z,57.37
2022-10-10T17:43:38.297Z,51.73
2022-10-10T17:46:33.831Z,46.10
2022-10-10T17:49:09.938Z,54.33
2022-10-10T17:51:45.571Z,46.70
2022-10-10T17:54:21.237Z,47.30
2022-10-10T17:56:55.096Z,49.77
2022-10-10T17:59:29.196Z,55.80
2022-10-10T18:02:03.171Z,65.10
2022-10-10T18:04:36.990Z,53.10
2022-10-10T18:07:11.587Z,56.13
2022-10-10T18:09:48.183Z,54.83
2022-10-10T18:12:22.497Z,54.20
2022-10-10T18:14:57.285Z,61.20
2022-10-10T18:17:31.760Z,57.53
2022-10-10T18:20:05.967Z,51.03
2022-10-10T18:22:39.431Z,49.73
2022-10-10T18:25:16.133Z,57.10
2022-10-10T18:27:50.315Z,52.80
2022-10-10T18:30:24.592Z,55.80
2022-10-10T18:32:58.595Z,62.70
2022-10-10T18:35:32.416Z,63.60
2022-10-10T18:38:07.219Z,61.47
2022-10-10T18:40:42.901Z,64.23
2022-10-10T18:43:19.324Z,66.90
2022-10-10T18:45:53.947Z,62.17
2022-10-10T18:48:29.335Z,53.03
2022-10-10T18:51:08.625Z,54.93
2022-10-10T18:53:43.980Z,61.53
2022-10-10T18:56:26.290Z,65.77
2022-10-10T18:59:03.460Z,70.17
2022-10-10T19:01:41.111Z,64.97
2022-10-10T19:04:16.235Z,61.13
2022-10-10T19:06:56.245Z,56.13
2022-10-10T19:09:31.847Z,65.37
2022-10-10T19:12:08.419Z,69.93
2022-10-10T19:14:43.552Z,72.97
2022-10-10T19:17:20.991Z,63.23
2022-10-10T19:19:56.584Z,61.57
2022-10-10T19:22:53.688Z,64.00
2022-10-10T19:25:33.346Z,59.33
2022-10-10T19:28:09.558Z,62.00
2022-10-10T19:30:45.081Z,60.40
2022-10-10T19:33:20.804Z,61.30
2022-10-10T19:35:54.800Z,59.40
2022-10-10T19:38:29.130Z,62.53
2022-10-10T19:41:03.912Z,67.97
2022-10-10T19:43:44.601Z,68.77
2022-10-10T19:46:21.068Z,61.63
2022-10-10T19:48:59.997Z,77.83
2022-10-10T19:51:34.932Z,56.43
2022-10-10T19:54:13.993Z,75.07
2022-10-10T19:56:52.191Z,71.00
2022-10-10T19:59:27.749Z,67.23
2022-10-10T20:02:02.536Z,64.17
2022-10-10T20:04:40.612Z,66.57
2022-10-10T20:07:15.308Z,62.43
2022-10-10T20:09:50.532Z,58.97
2022-10-10T20:12:25.037Z,64.30
2022-10-10T20:15:01.946Z,74.87
2022-10-10T20:17:38.837Z,59.77
2022-10-10T20:20:13.642Z,69.30
2022-10-10T20:22:48.059Z,60.70
2022-10-10T20:25:27.926Z,59.87
2022-10-10T20:28:02.061Z,65.20
2022-10-10T20:30:38.370Z,52.20
2022-10-10T20:33:12.473Z,68.63
2022-10-10T20:35:51.095Z,61.93
2022-10-10T20:38:27.913Z,70.07
2022-10-10T20:41:08.298Z,77.57
2022-10-10T20:43:43.435Z,63.00
2022-10-10T20:46:20.406Z,62.33
2022-10-10T20:48:59.304Z,69.13
2022-10-10T20:51:34.044Z,71.37
2022-10-10T20:54:09.040Z,70.07
2022-10-10T20:56:45.546Z,64.07
2022-10-10T20:59:19.821Z,68.73
2022-10-10T21:01:56.467Z,60.03
2022-10-10T21:04:30.439Z,65.03
2022-10-10T21:07:05.119Z,70.80
2022-10-10T21:09:39.270Z,71.23
2022-10-10T21:12:13.418Z,73.60
2022-10-10T21:14:46.983Z,62.20
2022-10-10T21:17:23.519Z,62.30
2022-10-10T21:19:58.011Z,68.77
2022-10-10T21:22:32.107Z,76.00
2022-10-10T21:25:05.828Z,61.97
2022-10-10T21:27:39.854Z,58.90
2022-10-10T21:30:14.833Z,65.23
2022-10-10T21:32:51.029Z,64.77
2022-10-10T21:35:25.577Z,76.27
2022-10-10T21:37:59.744Z,74.27
2022-10-10T21:40:33.940Z,60.23
2022-10-10T21:43:07.598Z,69.90
2022-10-10T21:45:41.775Z,70.20
2022-10-10T21:48:17.367Z,80.73
2022-10-10T21:50:51.726Z,72.20
2022-10-10T21:53:26.296Z,77.50
2022-10-10T21:56:01.433Z,79.27
2022-10-10T21:58:37.215Z,76.50
2022-10-10T22:01:16.727Z,73.77
2022-10-10T22:03:54.402Z,73.83
2022-10-10T22:06:29.568Z,64.87
2022-10-10T22:09:05.718Z,66.40
2022-10-10T22:11:40.767Z,66.30
2022-10-10T22:14:15.248Z,69.10
2022-10-10T22:16:49.340Z,66.47
2022-10-10T22:19:26.022Z,73.17
2022-10-10T22:21:59.816Z,70.33
2022-10-10T22:24:34.617Z,62.70
2022-10-10T22:27:08.789Z,66.20
2022-10-10T22:29:42.749Z,71.07
2022-10-10T22:32:16.626Z,72.80
2022-10-10T22:34:54.828Z,69.47
2022-10-10T22:37:29.292Z,63.93
2022-10-10T22:40:03.415Z,60.40
2022-10-10T22:42:37.970Z,59.67
2022-10-10T22:45:12.817Z,72.30
2022-10-10T22:47:46.862Z,64.87
2022-10-10T22:50:22.918Z,71.70
2022-10-10T22:52:57.087Z,68.73
2022-10-10T22:55:30.148Z,71.27
2022-10-10T22:58:07.066Z,59.50
2022-10-10T23:00:41.231Z,64.07
2022-10-10T23:03:15.294Z,67.20
2022-10-10T23:05:51.907Z,66.23
2022-10-10T23:08:25.921Z,62.37
2022-10-10T23:11:00.092Z,66.00
2022-10-10T23:13:34.526Z,65.80
2022-10-10T23:16:08.872Z,66.97
2022-10-10T23:18:43.632Z,74.30
2022-10-10T23:21:20.238Z,77.47
2022-10-10T23:23:54.233Z,68.00
2022-10-10T23:26:28.147Z,61.03
2022-10-10T23:29:01.973Z,77.13
2022-10-10T23:31:36.825Z,71.73
2022-10-10T23:34:10.495Z,67.43
2022-10-10T23:36:46.779Z,67.53
2022-10-10T23:39:22.762Z,68.03
2022-10-10T23:41:56.446Z,68.97
2022-10-10T23:44:30.126Z,71.87
2022-10-10T23:47:04.478Z,68.13
2022-10-10T23:49:38.920Z,64.70
2022-10-10T23:52:15.252Z,64.57
2022-10-10T23:54:49.622Z,68.60
2022-10-10T23:57:22.981Z,57.27
2022-10-10T23:59:57.451Z,73.07
